| Date | Time | Temp. (oF) | Dew Point (oF) | Rel. Hum. (%) | Press. (in.) | Wind Dir. | Wind Speed (mph) | Hourly Rainfall (in.) |
|
|---|---|---|---|---|---|---|---|---|---|
| 1 | 04/12 | 00:00 | 46 | 32 | 60 | 30.57 | E | 1 | 0.00 |
| 2 | 04/11 | 23:00 | 49 | 33 | 56 | 30.56 | ESE | 5 | 0.00 |
| 3 | 04/11 | 22:00 | 51 | 33 | 52 | 30.56 | E | 3 | 0.00 |
| 4 | 04/11 | 21:00 | 54 | 37 | 53 | 30.54 | SSE | 10 | 0.00 |
| 5 | 04/11 | 20:00 | 57 | 37 | 48 | 30.51 | ESE | 7 | 0.00 |
| 6 | 04/11 | 19:00 | 60 | 39 | 46 | 30.49 | SE | 10 | 0.00 |
| 7 | 04/11 | 18:00 | 63 | 41 | 45 | 30.49 | SE | 6 | 0.00 |
| 8 | 04/11 | 17:00 | 65 | 41 | 43 | 30.50 | S | 11 | 0.00 |
| 9 | 04/11 | 16:00 | 66 | 42 | 43 | 30.51 | E | 3 | 0.00 |
| 10 | 04/11 | 15:00 | 64 | 42 | 45 | 30.54 | S | 8 | 0.00 |
| 11 | 04/11 | 14:00 | 64 | 43 | 47 | 30.57 | E | 11 | 0.00 |
| 12 | 04/11 | 13:00 | 63 | 41 | 46 | 30.58 | SE | 8 | 0.00 |
| 13 | 04/11 | 12:00 | 61 | 39 | 45 | 30.60 | ESE | 6 | 0.00 |
| 14 | 04/11 | 11:00 | 59 | 39 | 48 | 30.60 | ESE | 9 | 0.00 |
| 15 | 04/11 | 10:00 | 56 | 40 | 57 | 30.60 | SE | 8 | 0.00 |
| 16 | 04/11 | 09:00 | 48 | 44 | 89 | 30.59 | ESE | 3 | 0.00 |
| 17 | 04/11 | 08:00 | 38 | 37 | 100 | 30.58 | N | 0 | 0.00 |
| 18 | 04/11 | 07:00 | 36 | 36 | 100 | 30.55 | N | 0 | 0.00 |
| 19 | 04/11 | 06:00 | 36 | 35 | 99 | 30.52 | N | 0 | 0.00 |
| 20 | 04/11 | 05:00 | 37 | 36 | 97 | 30.51 | N | 0 | 0.00 |
| 21 | 04/11 | 04:00 | 38 | 36 | 96 | 30.51 | NNW | 0 | 0.00 |
| 22 | 04/11 | 03:00 | 40 | 38 | 94 | 30.51 | WSW | 0 | 0.00 |
| 23 | 04/11 | 02:00 | 41 | 38 | 90 | 30.51 | NNW | 0 | 0.00 |
| 24 | 04/11 | 01:00 | 44 | 40 | 87 | 30.50 | NNW | 0 | 0.00 |